Time;durP1;ratioP1;P1;durP2;ratioP2;P2;SDS_P1;SDS_P2;PMS_P1;PMS_P2;Temp;Humidity;BMP_temperature;BMP_pressure;BME280_temperature;BME280_humidity;BME280_pressure;Samples;Min_cycle;Max_cycle;Signal;HPM_P1;HPM_P2
2022/04/16 00:05:37;;;;;;;;;;;;;;;;;;;;;
2022/04/16 05:58:33;;;;;;;3.13;2.35;;;;;;;6.27;100.00;100109.06;3305115;22;20290;-92
2022/04/16 06:02:41;;;;;;;4.70;2.17;;;;;;;6.27;100.00;100098.25;5010529;28;20054;-92
2022/04/16 06:16:32;;;;;;;4.15;2.28;;;;;;;6.67;100.00;100120.88;4943352;28;20523;-93
2022/04/16 06:26:03;;;;;;;4.13;3.00;;;;;;;7.04;100.00;100133.81;4983709;28;20114;-93
2022/04/16 06:29:32;;;;;;;;;;;;;;;;;;;;;
2022/04/16 06:38:48;;;;;;;6.97;3.38;;;;;;;7.37;100.00;100113.66;4998181;28;20132;-91
2022/04/16 07:11:23;;;;;;;4.60;3.03;;;;;;;8.94;94.30;100133.19;5901393;22;20102;-84
2022/04/16 07:13:50;;;;;;;11.18;3.25;;;;;;;9.23;93.19;100128.59;5051299;28;20485;-84
2022/04/16 07:16:19;;;;;;;6.30;3.80;;;;;;;9.40;89.77;100138.63;5053253;28;20044;-85
2022/04/16 07:18:46;;;;;;;5.23;3.07;;;;;;;9.47;88.55;100130.69;5058237;28;20084;-85
2022/04/16 07:21:13;;;;;;;5.35;3.17;;;;;;;9.40;87.42;100122.34;5048448;28;20638;-86
2022/04/16 07:23:59;;;;;;;5.63;3.25;;;;;;;9.72;87.75;100126.38;5030801;28;20481;-89
2022/04/16 07:26:58;;;;;;;6.32;3.30;;;;;;;9.94;84.77;100135.91;5040158;28;20504;-91
2022/04/16 07:29:41;;;;;;;5.80;3.45;;;;;;;10.08;85.93;100145.34;5046968;28;20049;-90
2022/04/16 07:32:30;;;;;;;6.90;3.70;;;;;;;10.08;85.08;100146.19;5036766;28;20100;-96
2022/04/16 07:38:51;;;;;;;4.85;3.33;;;;;;;9.82;86.52;100127.16;5035237;28;20132;-95
2022/04/16 08:03:55;;;;;;;6.18;3.75;;;;;;;10.13;83.14;100170.16;4970561;28;20052;-93
2022/04/16 08:06:27;;;;;;;6.47;3.90;;;;;;;9.86;84.15;100172.00;5039933;28;20054;-96
2022/04/16 08:09:40;;;;;;;4.72;3.30;;;;;;;9.85;84.77;100162.13;5039750;28;20041;-93
2022/04/16 08:12:29;;;;;;;5.10;3.83;;;;;;;10.04;87.25;100173.84;5037525;28;20079;-96
2022/04/16 08:15:00;;;;;;;5.00;3.50;;;;;;;10.33;85.77;100173.59;5037620;28;20069;-94
2022/04/16 08:17:42;;;;;;;5.05;3.50;;;;;;;10.47;82.14;100166.72;5038984;28;20065;-95
2022/04/16 08:20:16;;;;;;;4.55;3.17;;;;;;;10.44;84.18;100161.63;5038322;28;20050;-94
2022/04/16 08:28:26;;;;;;;6.18;4.13;;;;;;;10.25;82.02;100168.94;5056194;28;20057;-95
2022/04/16 08:31:05;;;;;;;7.28;4.97;;;;;;;10.03;83.98;100196.59;5049871;28;20049;-95
2022/04/16 08:34:11;;;;;;;6.03;4.17;;;;;;;10.18;82.01;100197.75;5050154;28;20053;-96
2022/04/16 08:37:09;;;;;;;4.88;4.15;;;;;;;10.39;81.36;100192.00;5046650;28;20061;-96
2022/04/16 08:39:40;;;;;;;7.55;4.90;;;;;;;10.19;80.14;100190.44;5041637;28;20041;-95
2022/04/16 08:45:38;;;;;;;10.80;4.85;;;;;;;10.18;80.78;100202.34;5044841;28;20045;-96
2022/04/16 08:48:26;;;;;;;8.35;5.25;;;;;;;10.29;80.43;100210.22;5046950;28;20071;-95
2022/04/16 08:54:39;;;;;;;7.95;5.32;;;;;;;10.03;79.11;100197.44;5058142;28;20053;-94
2022/04/16 08:57:15;;;;;;;9.45;6.18;;;;;;;10.08;79.03;100213.28;5059245;28;20049;-94
2022/04/16 09:02:58;;;;;;;12.48;5.68;;;;;;;9.88;80.55;100209.88;5064899;28;20112;-96
2022/04/16 09:08:44;;;;;;;11.30;6.38;;;;;;;10.38;77.80;100219.34;5066562;28;20393;-95
2022/04/16 09:11:49;;;;;;;;;;;;;;;;;;;;;
2022/04/16 09:18:17;;;;;;;9.73;6.07;;;;;;;10.97;76.83;100212.25;5057624;28;20048;-94
2022/04/16 09:24:13;;;;;;;9.30;5.50;;;;;;;11.38;70.94;100208.88;5058314;28;20070;-96
2022/04/16 09:26:43;;;;;;;11.32;5.13;;;;;;;11.23;69.46;100211.34;5058570;28;20045;-96
2022/04/16 09:32:28;;;;;;;9.20;5.10;;;;;;;11.79;72.60;100221.75;5053278;28;20083;-96
2022/04/16 09:35:02;;;;;;;6.53;4.63;;;;;;;12.10;67.50;100202.91;5056829;28;20057;-96
2022/04/16 09:38:17;;;;;;;;;;;;;;;;;;;;;
2022/04/16 09:44:12;;;;;;;6.35;4.05;;;;;;;12.52;62.87;100226.41;5058526;28;20071;-96
2022/04/16 09:47:26;;;;;;;;;;;;;;;;;;;;;
2022/04/16 09:49:59;;;;;;;9.73;4.55;;;;;;;12.35;64.05;100213.81;5049436;28;20156;-96
2022/04/16 09:52:42;;;;;;;7.10;4.32;;;;;;;12.57;62.42;100210.41;5062803;28;20052;-95
2022/04/16 09:55:22;;;;;;;6.97;4.43;;;;;;;12.54;60.37;100208.00;5056357;28;20091;-95
2022/04/16 10:01:24;;;;;;;4.53;3.25;;;;;;;12.34;61.27;100217.56;5054158;28;20412;-95
2022/04/16 10:13:09;;;;;;;6.00;3.63;;;;;;;12.45;59.13;100216.34;5053644;28;20504;-86
2022/04/16 10:16:16;;;;;;;;;;;;;;;;;;;;;
2022/04/16 10:19:27;;;;;;;4.45;2.90;;;;;;;12.23;59.99;100218.75;5046938;28;20056;-95
2022/04/16 10:22:24;;;;;;;4.63;3.20;;;;;;;11.52;59.68;100210.94;5076750;28;20078;-92
2022/04/16 10:35:29;;;;;;;;;;;;;;;;;;;;;
2022/04/16 10:45:15;;;;;;;4.38;2.67;;;;;;;12.66;59.68;100243.09;4955421;29;20537;-94
2022/04/16 10:55:27;;;;;;;;;;;;;;;;;;;;;
2022/04/16 10:59:10;;;;;;;3.28;1.80;;;;;;;11.90;57.36;100218.69;4934661;29;20083;-93
2022/04/16 11:02:20;;;;;;;;;;;;;;;;;;;;;
2022/04/16 11:35:57;;;;;;;3.38;2.20;;;;;;;12.38;55.07;100210.75;4970466;28;20080;-96
2022/04/16 11:42:11;;;;;;;2.70;2.00;;;;;;;13.27;51.37;100184.25;5000591;28;20085;-94
2022/04/16 11:47:48;;;;;;;4.70;2.22;;;;;;;13.40;48.88;100189.19;5088745;28;20036;-94
2022/04/16 11:54:03;;;;;;;4.22;2.03;;;;;;;14.33;48.30;100190.09;5094829;28;20028;-93
2022/04/16 12:00:04;;;;;;;3.15;2.13;;;;;;;14.50;47.11;100188.06;5062470;28;20076;-95
2022/04/16 12:02:42;;;;;;;3.50;2.55;;;;;;;14.74;46.03;100188.88;5077081;28;20140;-89
2022/04/16 12:06:01;;;;;;;3.25;2.17;;;;;;;15.11;48.58;100187.09;5064646;28;20117;-96
2022/04/16 12:28:18;;;;;;;3.30;2.40;;;;;;;14.02;45.08;100187.44;4890349;29;20076;-93
2022/04/16 20:07:00;;;;;;;5.15;1.88;;;;;;;7.29;53.10;100270.41;6279075;22;1397187;-90
2022/04/16 20:12:13;;;;;;;1.83;1.33;;;;;;;7.19;51.42;100261.41;6282767;22;20070;-91
2022/04/16 20:14:43;;;;;;;3.20;1.30;;;;;;;7.15;53.10;100271.63;6282991;22;20015;-90
2022/04/16 20:17:10;;;;;;;8.13;1.40;;;;;;;7.20;52.18;100284.75;6283227;22;20094;-90
2022/04/16 20:19:39;;;;;;;1.70;1.30;;;;;;;7.19;52.22;100273.06;6283510;22;20015;-89
2022/04/16 20:22:12;;;;;;;4.33;2.60;;;;;;;7.27;52.81;100277.78;6282705;22;20020;-90
2022/04/16 20:24:46;;;;;;;2.38;1.48;;;;;;;7.07;54.37;100260.63;6282463;22;20022;-90
2022/04/16 20:27:17;;;;;;;4.70;1.70;;;;;;;7.05;52.55;100259.91;6282482;22;20040;-90
2022/04/16 20:29:47;;;;;;;4.13;1.85;;;;;;;7.11;52.72;100261.22;6282498;22;20015;-90
2022/04/16 20:32:20;;;;;;;2.85;1.80;;;;;;;7.19;53.31;100281.16;6255357;22;20063;-90
2022/04/16 20:34:53;;;;;;;4.32;1.83;;;;;;;7.10;53.62;100273.88;6283184;22;20102;-92
2022/04/16 20:37:37;;;;;;;2.53;1.73;;;;;;;7.08;53.63;100267.75;6281863;22;20023;-91
2022/04/16 20:45:56;;;;;;;;;;;;;;;7.37;52.77;100285.94;6281421;22;20066;-90
2022/04/16 20:48:26;;;;;;;2.97;2.13;;;;;;;7.25;53.04;100280.63;6282414;22;20334;-91
2022/04/16 21:14:40;;;;;;;3.50;1.80;;;;;;;7.16;53.79;100305.78;6223060;23;20043;-89
2022/04/16 21:17:09;;;;;;;4.47;2.08;;;;;;;7.05;54.08;100298.63;6242386;23;20016;-88
2022/04/16 21:19:38;;;;;;;2.72;2.10;;;;;;;6.93;55.49;100290.75;6242399;23;20023;-88
2022/04/16 21:22:05;;;;;;;5.60;2.10;;;;;;;6.97;54.75;100293.03;6241662;23;20395;-88
2022/04/16 21:24:31;;;;;;;2.83;1.60;;;;;;;6.95;55.39;100299.56;6240122;23;20102;-88
2022/04/16 21:27:00;;;;;;;5.35;2.13;;;;;;;6.93;55.27;100307.81;6242474;23;20121;-89
2022/04/16 21:29:27;;;;;;;2.35;1.80;;;;;;;6.87;55.36;100295.66;6243065;23;20024;-88
2022/04/16 21:31:55;;;;;;;2.72;1.83;;;;;;;6.82;55.19;100297.06;6241630;23;20047;-88
2022/04/16 21:34:26;;;;;;;3.60;2.10;;;;;;;6.81;55.55;100301.63;6241039;23;20317;-88
2022/04/16 21:36:54;;;;;;;4.15;2.38;;;;;;;6.68;56.92;100291.00;6242170;23;20012;-89
2022/04/16 21:39:23;;;;;;;3.47;2.22;;;;;;;6.68;56.40;100301.81;6241687;23;20456;-89
2022/04/16 21:41:52;;;;;;;4.47;2.10;;;;;;;6.71;56.42;100306.09;6242029;23;20016;-88
2022/04/16 21:44:25;;;;;;;2.70;2.05;;;;;;;6.53;57.53;100295.00;6241585;23;20020;-88
2022/04/16 21:46:53;;;;;;;3.72;2.20;;;;;;;6.55;56.09;100290.34;6243621;23;20539;-87
2022/04/16 21:49:23;;;;;;;2.95;1.95;;;;;;;6.60;56.54;100298.06;6243070;23;20463;-89
2022/04/16 21:51:54;;;;;;;4.32;2.13;;;;;;;6.58;55.99;100284.69;6242016;23;20058;-88
2022/04/16 21:58:07;;;;;;;3.03;2.33;;;;;;;6.42;56.73;100298.63;6089696;23;20055;-87
2022/04/16 22:01:13;;;;;;;3.92;1.80;;;;;;;6.44;57.32;100317.41;6243092;23;20039;-88
2022/04/16 22:03:43;;;;;;;3.88;2.35;;;;;;;6.45;56.41;100308.34;6239174;23;20020;-88
2022/04/16 22:06:16;;;;;;;2.95;2.08;;;;;;;6.54;55.64;100316.50;6251436;23;20020;-87
2022/04/16 22:08:54;;;;;;;2.70;2.38;;;;;;;6.51;56.14;100319.47;6252730;23;20012;-88
2022/04/16 22:11:22;;;;;;;4.32;2.20;;;;;;;6.41;56.02;100307.72;6246866;23;20024;-88
2022/04/16 22:13:49;;;;;;;5.50;2.20;;;;;;;6.40;56.82;100321.34;6245027;23;20020;-85
2022/04/16 22:19:52;;;;;;;3.47;2.20;;;;;;;6.34;57.17;100323.59;6245409;23;20024;-93
2022/04/16 22:25:24;;;;;;;4.40;2.10;;;;;;;6.24;57.01;100319.97;6245333;23;20347;-93
2022/04/16 22:27:55;;;;;;;11.10;2.30;;;;;;;6.15;57.19;100309.94;6246747;23;20017;-92
2022/04/16 22:30:24;;;;;;;3.42;2.30;;;;;;;6.13;57.88;100323.56;6247930;23;20020;-92
2022/04/16 22:32:56;;;;;;;5.47;2.67;;;;;;;5.99;58.67;100326.53;6247302;23;20096;-92
2022/04/16 22:35:45;;;;;;;2.60;2.05;;;;;;;5.94;58.31;100318.78;6246638;23;20310;-94
2022/04/16 22:41:52;;;;;;;3.28;2.28;;;;;;;5.77;59.24;100327.44;6246693;23;20030;-92
2022/04/16 22:44:28;;;;;;;4.03;2.00;;;;;;;5.84;58.73;100339.41;6245553;23;20016;-92
2022/04/16 22:47:12;;;;;;;6.75;2.50;;;;;;;5.79;59.38;100353.28;6246740;23;20012;-92
2022/04/16 22:49:50;;;;;;;2.78;2.30;;;;;;;5.70;60.32;100348.66;6246070;23;20103;-92
2022/04/16 22:52:22;;;;;;;4.03;2.45;;;;;;;5.59;60.70;100346.81;6246564;22;20016;-92
2022/04/16 22:55:02;;;;;;;3.95;2.13;;;;;;;5.53;61.67;100350.00;6246858;23;20090;-93
2022/04/16 22:57:42;;;;;;;;;;;;;;;5.48;61.79;100338.75;6246726;23;20347;-93
2022/04/16 23:00:14;;;;;;;2.50;2.00;;;;;;;5.27;62.55;100322.44;6246832;23;19926;-91
2022/04/16 23:02:52;;;;;;;5.40;2.47;;;;;;;5.38;63.12;100330.53;6245724;23;20399;-92
2022/04/16 23:05:30;;;;;;;3.47;2.35;;;;;;;5.17;64.39;100298.03;6246362;23;20040;-93
2022/04/16 23:08:05;;;;;;;6.47;2.33;;;;;;;5.16;66.25;100334.06;6246190;23;20313;-91
2022/04/16 23:10:43;;;;;;;3.28;2.25;;;;;;;5.02;65.38;100332.47;6245925;23;20483;-92
2022/04/16 23:13:20;;;;;;;4.82;1.88;;;;;;;5.07;65.33;100327.59;6245275;23;20020;-92
2022/04/16 23:18:43;;;;;;;4.65;3.10;;;;;;;4.64;68.56;100324.66;6246183;23;20051;-92
2022/04/16 23:21:25;;;;;;;3.47;2.35;;;;;;;4.45;68.18;100323.38;6238615;23;20020;-92
2022/04/16 23:24:00;;;;;;;3.78;2.42;;;;;;;4.46;69.21;100327.81;6245779;23;20015;-92
2022/04/16 23:26:31;;;;;;;5.53;2.20;;;;;;;4.46;70.16;100330.50;6245600;23;20042;-91
2022/04/16 23:29:12;;;;;;;3.30;2.45;;;;;;;4.28;71.31;100338.13;6245235;23;20019;-91
2022/04/16 23:31:39;;;;;;;6.57;2.47;;;;;;;4.27;71.07;100341.78;6245662;23;20078;-92
2022/04/16 23:34:13;;;;;;;3.83;2.42;;;;;;;4.05;70.83;100335.34;6244604;23;20035;-92
2022/04/16 23:39:31;;;;;;;4.13;2.60;;;;;;;3.97;71.28;100336.88;6241284;23;20020;-92
2022/04/16 23:42:17;;;;;;;5.22;2.83;;;;;;;3.85;72.06;100315.31;6244987;23;20107;-92
2022/04/16 23:47:36;;;;;;;4.10;2.08;;;;;;;3.87;74.38;100301.75;6244545;23;20066;-91
2022/04/16 23:50:03;;;;;;;3.13;2.47;;;;;;;3.78;72.30;100310.47;6243940;23;20038;-91
2022/04/16 23:52:30;;;;;;;3.85;2.33;;;;;;;3.88;73.03;100323.16;6243898;23;20024;-91
2022/04/16 23:55:07;;;;;;;3.13;2.50;;;;;;;3.78;73.09;100314.03;6243891;23;20340;-91
2022/04/16 23:57:35;;;;;;;5.13;2.45;;;;;;;3.76;73.39;100307.88;6243838;23;20043;-92
